sensor_id;sensor_type;location;lat;lon;timestamp;P1;durP1;ratioP1;P2;durP2;ratioP2
71821;SDS011;64096;52.548;13.406;2022-12-11T06:03:49;22.15;;;13.52;;
71821;SDS011;64096;52.548;13.406;2022-12-11T06:06:15;20.85;;;11.32;;
71821;SDS011;64096;52.548;13.406;2022-12-11T06:08:41;20.52;;;11.77;;
71821;SDS011;64096;52.548;13.406;2022-12-11T06:11:07;21.10;;;12.57;;
71821;SDS011;64096;52.548;13.406;2022-12-11T06:13:34;18.70;;;11.52;;
71821;SDS011;64096;52.548;13.406;2022-12-11T06:16:01;19.73;;;11.50;;
71821;SDS011;64096;52.548;13.406;2022-12-11T06:18:27;17.27;;;10.68;;
71821;SDS011;64096;52.548;13.406;2022-12-11T06:20:53;16.77;;;11.38;;
71821;SDS011;64096;52.548;13.406;2022-12-11T06:23:19;19.20;;;11.50;;
71821;SDS011;64096;52.548;13.406;2022-12-11T06:25:45;20.45;;;12.00;;
71821;SDS011;64096;52.548;13.406;2022-12-11T06:28:11;16.75;;;10.48;;
71821;SDS011;64096;52.548;13.406;2022-12-11T06:30:38;18.23;;;11.18;;
71821;SDS011;64096;52.548;13.406;2022-12-11T06:33:04;16.40;;;11.02;;
71821;SDS011;64096;52.548;13.406;2022-12-11T06:35:30;16.58;;;9.60;;
71821;SDS011;64096;52.548;13.406;2022-12-11T06:37:56;18.85;;;10.70;;
71821;SDS011;64096;52.548;13.406;2022-12-11T06:40:22;17.77;;;11.27;;
71821;SDS011;64096;52.548;13.406;2022-12-11T06:42:48;17.42;;;10.75;;
71821;SDS011;64096;52.548;13.406;2022-12-11T06:45:14;15.52;;;9.63;;
71821;SDS011;64096;52.548;13.406;2022-12-11T06:47:40;14.90;;;9.10;;
71821;SDS011;64096;52.548;13.406;2022-12-11T06:50:06;14.98;;;9.80;;
71821;SDS011;64096;52.548;13.406;2022-12-11T06:52:32;19.65;;;10.25;;
71821;SDS011;64096;52.548;13.406;2022-12-11T06:54:59;15.23;;;9.40;;
71821;SDS011;64096;52.548;13.406;2022-12-11T06:57:25;14.82;;;9.48;;
71821;SDS011;64096;52.548;13.406;2022-12-11T06:59:51;15.55;;;8.68;;
71821;SDS011;64096;52.548;13.406;2022-12-11T07:02:18;14.35;;;8.55;;
71821;SDS011;64096;52.548;13.406;2022-12-11T07:04:44;13.75;;;8.95;;
71821;SDS011;64096;52.548;13.406;2022-12-11T07:07:10;16.15;;;9.25;;
71821;SDS011;64096;52.548;13.406;2022-12-11T07:09:37;14.98;;;9.60;;
71821;SDS011;64096;52.548;13.406;2022-12-11T07:12:04;14.45;;;8.60;;
71821;SDS011;64096;52.548;13.406;2022-12-11T07:14:30;14.30;;;8.40;;
71821;SDS011;64096;52.548;13.406;2022-12-11T07:16:56;15.80;;;9.82;;
71821;SDS011;64096;52.548;13.406;2022-12-11T07:19:23;12.63;;;8.02;;
71821;SDS011;64096;52.548;13.406;2022-12-11T07:21:49;13.75;;;8.95;;
71821;SDS011;64096;52.548;13.406;2022-12-11T07:24:15;13.07;;;9.18;;
71821;SDS011;64096;52.548;13.406;2022-12-11T07:26:41;14.35;;;8.52;;
71821;SDS011;64096;52.548;13.406;2022-12-11T07:29:07;15.15;;;8.90;;
71821;SDS011;64096;52.548;13.406;2022-12-11T07:31:33;15.05;;;8.95;;
71821;SDS011;64096;52.548;13.406;2022-12-11T07:34:00;12.70;;;7.70;;
71821;SDS011;64096;52.548;13.406;2022-12-11T07:36:27;14.50;;;9.02;;
71821;SDS011;64096;52.548;13.406;2022-12-11T07:38:54;14.50;;;8.77;;
71821;SDS011;64096;52.548;13.406;2022-12-11T07:41:20;14.85;;;9.18;;
71821;SDS011;64096;52.548;13.406;2022-12-11T07:43:47;13.77;;;8.82;;
71821;SDS011;64096;52.548;13.406;2022-12-11T07:46:16;14.82;;;9.15;;
71821;SDS011;64096;52.548;13.406;2022-12-11T07:48:43;13.75;;;8.57;;
71821;SDS011;64096;52.548;13.406;2022-12-11T07:51:14;12.77;;;8.18;;
71821;SDS011;64096;52.548;13.406;2022-12-11T07:53:41;12.45;;;7.55;;
71821;SDS011;64096;52.548;13.406;2022-12-11T07:56:07;14.73;;;8.90;;
71821;SDS011;64096;52.548;13.406;2022-12-11T07:58:33;13.25;;;8.18;;
71821;SDS011;64096;52.548;13.406;2022-12-11T08:01:00;12.38;;;7.90;;
71821;SDS011;64096;52.548;13.406;2022-12-11T08:03:26;13.88;;;9.32;;
71821;SDS011;64096;52.548;13.406;2022-12-11T08:05:52;14.13;;;8.45;;
71821;SDS011;64096;52.548;13.406;2022-12-11T08:08:18;12.18;;;7.47;;
71821;SDS011;64096;52.548;13.406;2022-12-11T08:10:44;14.30;;;8.18;;
71821;SDS011;64096;52.548;13.406;2022-12-11T08:13:10;14.88;;;8.30;;
71821;SDS011;64096;52.548;13.406;2022-12-11T08:15:36;16.23;;;9.68;;
71821;SDS011;64096;52.548;13.406;2022-12-11T08:18:03;12.48;;;7.97;;
71821;SDS011;64096;52.548;13.406;2022-12-11T08:20:29;13.27;;;8.85;;
71821;SDS011;64096;52.548;13.406;2022-12-11T08:22:55;14.95;;;8.65;;
71821;SDS011;64096;52.548;13.406;2022-12-11T08:25:21;13.55;;;8.25;;
71821;SDS011;64096;52.548;13.406;2022-12-11T08:27:48;13.57;;;8.00;;
71821;SDS011;64096;52.548;13.406;2022-12-11T08:30:14;14.25;;;8.43;;
71821;SDS011;64096;52.548;13.406;2022-12-11T08:32:40;15.05;;;8.80;;
71821;SDS011;64096;52.548;13.406;2022-12-11T08:35:06;15.65;;;8.93;;
71821;SDS011;64096;52.548;13.406;2022-12-11T08:37:33;13.90;;;8.55;;
71821;SDS011;64096;52.548;13.406;2022-12-11T08:39:59;13.75;;;8.85;;
71821;SDS011;64096;52.548;13.406;2022-12-11T08:42:25;14.23;;;9.20;;
71821;SDS011;64096;52.548;13.406;2022-12-11T08:44:51;14.50;;;9.07;;
71821;SDS011;64096;52.548;13.406;2022-12-11T08:47:17;13.73;;;7.72;;
71821;SDS011;64096;52.548;13.406;2022-12-11T08:49:43;13.52;;;8.57;;
71821;SDS011;64096;52.548;13.406;2022-12-11T08:52:10;13.32;;;7.85;;
71821;SDS011;64096;52.548;13.406;2022-12-11T08:54:36;12.98;;;7.95;;
71821;SDS011;64096;52.548;13.406;2022-12-11T08:57:03;15.40;;;8.68;;
71821;SDS011;64096;52.548;13.406;2022-12-11T08:59:29;14.55;;;8.38;;
71821;SDS011;64096;52.548;13.406;2022-12-11T09:01:55;14.57;;;8.88;;
71821;SDS011;64096;52.548;13.406;2022-12-11T09:04:21;12.57;;;8.15;;
71821;SDS011;64096;52.548;13.406;2022-12-11T09:06:47;14.25;;;8.50;;
71821;SDS011;64096;52.548;13.406;2022-12-11T09:09:13;14.45;;;9.10;;
71821;SDS011;64096;52.548;13.406;2022-12-11T09:11:39;14.73;;;9.85;;
71821;SDS011;64096;52.548;13.406;2022-12-11T09:14:06;15.05;;;9.95;;
71821;SDS011;64096;52.548;13.406;2022-12-11T09:16:32;13.52;;;8.80;;
71821;SDS011;64096;52.548;13.406;2022-12-11T09:18:58;14.52;;;8.40;;
71821;SDS011;64096;52.548;13.406;2022-12-11T09:21:26;12.30;;;8.15;;
71821;SDS011;64096;52.548;13.406;2022-12-11T09:23:53;15.10;;;8.70;;
71821;SDS011;64096;52.548;13.406;2022-12-11T09:26:19;12.45;;;7.63;;
71821;SDS011;64096;52.548;13.406;2022-12-11T09:28:45;13.43;;;8.55;;
71821;SDS011;64096;52.548;13.406;2022-12-11T09:31:16;13.40;;;7.28;;
71821;SDS011;64096;52.548;13.406;2022-12-11T09:33:42;12.75;;;7.85;;
71821;SDS011;64096;52.548;13.406;2022-12-11T09:36:09;13.80;;;8.35;;
71821;SDS011;64096;52.548;13.406;2022-12-11T09:38:35;15.00;;;8.40;;
71821;SDS011;64096;52.548;13.406;2022-12-11T09:41:08;13.85;;;8.23;;
71821;SDS011;64096;52.548;13.406;2022-12-11T09:46:11;13.07;;;7.93;;
71821;SDS011;64096;52.548;13.406;2022-12-11T09:48:38;14.98;;;9.63;;
71821;SDS011;64096;52.548;13.406;2022-12-11T09:51:09;14.57;;;8.70;;
71821;SDS011;64096;52.548;13.406;2022-12-11T09:53:38;14.38;;;8.77;;
71821;SDS011;64096;52.548;13.406;2022-12-11T10:01:44;12.32;;;8.10;;
71821;SDS011;64096;52.548;13.406;2022-12-11T10:07:15;14.07;;;8.10;;
71821;SDS011;64096;52.548;13.406;2022-12-11T10:09:50;13.63;;;8.20;;
71821;SDS011;64096;52.548;13.406;2022-12-11T10:15:11;15.10;;;8.90;;
71821;SDS011;64096;52.548;13.406;2022-12-11T10:17:39;13.98;;;8.63;;
71821;SDS011;64096;52.548;13.406;2022-12-11T10:22:34;13.23;;;8.23;;
71821;SDS011;64096;52.548;13.406;2022-12-11T10:25:03;16.02;;;10.30;;
71821;SDS011;64096;52.548;13.406;2022-12-11T10:27:30;13.50;;;9.73;;
71821;SDS011;64096;52.548;13.406;2022-12-11T10:32:33;13.45;;;7.63;;
71821;SDS011;64096;52.548;13.406;2022-12-11T10:35:03;13.40;;;7.95;;
71821;SDS011;64096;52.548;13.406;2022-12-11T10:37:30;13.00;;;8.25;;
71821;SDS011;64096;52.548;13.406;2022-12-11T10:39:56;11.80;;;7.53;;
71821;SDS011;64096;52.548;13.406;2022-12-11T10:42:22;12.65;;;7.75;;
71821;SDS011;64096;52.548;13.406;2022-12-11T10:44:55;13.25;;;7.90;;
71821;SDS011;64096;52.548;13.406;2022-12-11T10:47:21;13.52;;;8.23;;
71821;SDS011;64096;52.548;13.406;2022-12-11T10:49:58;12.98;;;8.13;;
71821;SDS011;64096;52.548;13.406;2022-12-11T10:54:54;12.50;;;7.50;;
71821;SDS011;64096;52.548;13.406;2022-12-11T10:57:25;14.70;;;8.63;;
71821;SDS011;64096;52.548;13.406;2022-12-11T10:59:52;13.73;;;8.13;;
71821;SDS011;64096;52.548;13.406;2022-12-11T11:02:26;12.30;;;7.38;;
71821;SDS011;64096;52.548;13.406;2022-12-11T11:04:53;13.23;;;7.80;;
71821;SDS011;64096;52.548;13.406;2022-12-11T11:07:30;13.55;;;8.77;;
71821;SDS011;64096;52.548;13.406;2022-12-11T11:12:35;14.90;;;9.07;;
71821;SDS011;64096;52.548;13.406;2022-12-11T11:15:02;14.27;;;8.43;;
71821;SDS011;64096;52.548;13.406;2022-12-11T11:17:29;13.48;;;8.55;;
71821;SDS011;64096;52.548;13.406;2022-12-11T11:19:56;11.65;;;7.05;;
71821;SDS011;64096;52.548;13.406;2022-12-11T11:22:23;12.88;;;8.32;;
71821;SDS011;64096;52.548;13.406;2022-12-11T11:29:55;13.82;;;8.52;;
71821;SDS011;64096;52.548;13.406;2022-12-11T11:32:25;15.18;;;8.52;;
71821;SDS011;64096;52.548;13.406;2022-12-11T11:34:51;12.73;;;8.43;;
71821;SDS011;64096;52.548;13.406;2022-12-11T11:37:21;13.07;;;8.05;;
71821;SDS011;64096;52.548;13.406;2022-12-11T11:39:48;12.85;;;7.82;;
71821;SDS011;64096;52.548;13.406;2022-12-11T11:42:18;12.95;;;7.80;;
71821;SDS011;64096;52.548;13.406;2022-12-11T11:44:46;13.85;;;8.48;;
71821;SDS011;64096;52.548;13.406;2022-12-11T11:47:18;13.20;;;8.27;;
71821;SDS011;64096;52.548;13.406;2022-12-11T11:55:08;13.68;;;8.43;;
71821;SDS011;64096;52.548;13.406;2022-12-11T11:57:42;14.98;;;8.25;;
71821;SDS011;64096;52.548;13.406;2022-12-11T12:00:17;13.52;;;8.85;;
71821;SDS011;64096;52.548;13.406;2022-12-11T12:02:44;13.70;;;7.95;;
71821;SDS011;64096;52.548;13.406;2022-12-11T12:05:11;13.43;;;7.88;;
71821;SDS011;64096;52.548;13.406;2022-12-11T12:07:46;13.63;;;8.18;;
71821;SDS011;64096;52.548;13.406;2022-12-11T12:30:47;14.02;;;8.88;;
71821;SDS011;64096;52.548;13.406;2022-12-11T12:33:24;14.25;;;9.02;;
71821;SDS011;64096;52.548;13.406;2022-12-11T12:36:01;15.18;;;9.63;;
71821;SDS011;64096;52.548;13.406;2022-12-11T12:38:50;14.90;;;9.05;;
71821;SDS011;64096;52.548;13.406;2022-12-11T12:41:22;13.27;;;8.75;;
71821;SDS011;64096;52.548;13.406;2022-12-11T12:43:58;13.60;;;8.38;;
71821;SDS011;64096;52.548;13.406;2022-12-11T12:48:51;16.75;;;10.35;;
71821;SDS011;64096;52.548;13.406;2022-12-11T12:51:18;17.17;;;9.05;;
71821;SDS011;64096;52.548;13.406;2022-12-11T12:54:00;16.15;;;9.25;;
71821;SDS011;64096;52.548;13.406;2022-12-11T12:56:28;14.27;;;9.00;;
71821;SDS011;64096;52.548;13.406;2022-12-11T12:58:55;14.77;;;9.05;;
71821;SDS011;64096;52.548;13.406;2022-12-11T13:01:21;13.95;;;8.77;;
71821;SDS011;64096;52.548;13.406;2022-12-11T13:03:50;14.20;;;8.80;;
71821;SDS011;64096;52.548;13.406;2022-12-11T13:08:53;15.60;;;8.35;;
71821;SDS011;64096;52.548;13.406;2022-12-11T13:11:20;19.17;;;10.65;;
71821;SDS011;64096;52.548;13.406;2022-12-11T13:14:06;14.85;;;8.80;;
71821;SDS011;64096;52.548;13.406;2022-12-11T13:19:02;12.88;;;8.57;;
71821;SDS011;64096;52.548;13.406;2022-12-11T13:26:43;15.50;;;9.48;;
71821;SDS011;64096;52.548;13.406;2022-12-11T13:29:28;13.73;;;8.55;;
71821;SDS011;64096;52.548;13.406;2022-12-11T13:31:55;14.05;;;8.40;;
71821;SDS011;64096;52.548;13.406;2022-12-11T13:34:22;13.75;;;8.65;;
71821;SDS011;64096;52.548;13.406;2022-12-11T13:36:49;12.25;;;8.13;;
71821;SDS011;64096;52.548;13.406;2022-12-11T13:39:18;13.93;;;8.80;;
71821;SDS011;64096;52.548;13.406;2022-12-11T13:41:46;14.50;;;8.88;;
71821;SDS011;64096;52.548;13.406;2022-12-11T13:44:15;13.25;;;8.43;;
71821;SDS011;64096;52.548;13.406;2022-12-11T13:46:43;17.20;;;10.05;;
71821;SDS011;64096;52.548;13.406;2022-12-11T13:49:16;15.02;;;9.57;;
71821;SDS011;64096;52.548;13.406;2022-12-11T13:51:49;13.70;;;8.90;;
71821;SDS011;64096;52.548;13.406;2022-12-11T13:54:16;15.73;;;10.20;;
71821;SDS011;64096;52.548;13.406;2022-12-11T13:57:44;14.25;;;8.90;;
71821;SDS011;64096;52.548;13.406;2022-12-11T13:59:42;16.00;;;9.95;;
